createdAt,value
2023-08-14T00:01:26.534Z,72.46
2023-08-14T00:03:53.388Z,72.45
2023-08-14T00:06:20.304Z,72.27
2023-08-14T00:08:47.051Z,71.78
2023-08-14T00:11:13.815Z,71.84
2023-08-14T00:13:57.247Z,71.45
2023-08-14T00:16:25.544Z,72.46
2023-08-14T00:18:52.608Z,73.63
2023-08-14T00:21:20.890Z,74.64
2023-08-14T00:23:47.650Z,73.97
2023-08-14T00:26:14.419Z,74.34
2023-08-14T00:28:41.313Z,74.08
2023-08-14T00:31:08.642Z,74.31
2023-08-14T00:33:35.481Z,74.93
2023-08-14T00:36:02.304Z,74.63
2023-08-14T00:38:29.063Z,74.58
2023-08-14T00:40:55.843Z,74.58
2023-08-14T00:43:23.653Z,73.72
2023-08-14T00:45:54.193Z,73.89
2023-08-14T00:48:21.011Z,74.00
2023-08-14T00:50:48.376Z,73.76
2023-08-14T00:53:16.407Z,75.76
2023-08-14T00:55:43.413Z,78.20
2023-08-14T00:58:10.203Z,79.36
2023-08-14T01:00:37.676Z,79.96
2023-08-14T01:03:05.184Z,79.57
2023-08-14T01:05:32.842Z,78.80
2023-08-14T01:07:59.727Z,78.54
2023-08-14T01:10:58.290Z,77.97
2023-08-14T01:13:37.985Z,78.30
2023-08-14T01:16:09.336Z,78.36
2023-08-14T01:18:39.455Z,78.60
2023-08-14T01:21:41.014Z,78.72
2023-08-14T01:24:39.853Z,78.54
2023-08-14T01:27:06.856Z,77.49
2023-08-14T01:29:35.108Z,78.25
2023-08-14T01:32:01.935Z,78.05
2023-08-14T01:34:28.880Z,76.87
2023-08-14T01:37:17.370Z,77.95
2023-08-14T01:40:00.425Z,79.49
2023-08-14T01:42:33.145Z,79.69
2023-08-14T01:45:06.535Z,78.41
2023-08-14T01:47:35.690Z,77.97
2023-08-14T01:50:03.557Z,78.47
2023-08-14T01:52:31.401Z,80.15
2023-08-14T01:55:01.945Z,80.42
2023-08-14T01:57:29.415Z,80.78
2023-08-14T01:59:56.466Z,80.07
2023-08-14T02:02:23.178Z,79.02
2023-08-14T02:04:52.291Z,78.70
2023-08-14T02:07:20.754Z,80.68
2023-08-14T02:09:47.573Z,81.13
2023-08-14T02:12:14.366Z,81.55
2023-08-14T02:14:41.089Z,81.20
2023-08-14T02:17:07.797Z,81.03
2023-08-14T02:19:34.604Z,80.89
2023-08-14T02:22:01.328Z,80.39
2023-08-14T02:24:28.044Z,79.66
2023-08-14T02:26:54.776Z,79.69
2023-08-14T02:29:21.692Z,80.84
2023-08-14T02:31:51.541Z,81.39
2023-08-14T02:34:57.359Z,81.94
2023-08-14T02:37:24.139Z,81.31
2023-08-14T02:39:50.962Z,80.74
2023-08-14T02:42:20.655Z,80.05
2023-08-14T02:44:48.037Z,80.28
2023-08-14T02:47:14.966Z,80.90
2023-08-14T02:49:41.723Z,80.85
2023-08-14T02:52:08.670Z,81.07
2023-08-14T02:54:35.524Z,80.58
2023-08-14T02:57:02.391Z,79.43
2023-08-14T02:59:29.221Z,79.87
2023-08-14T03:01:56.048Z,80.56
2023-08-14T03:04:25.300Z,80.67
2023-08-14T03:06:52.669Z,80.56
2023-08-14T03:09:19.508Z,81.00
2023-08-14T03:11:46.174Z,81.05
2023-08-14T03:14:13.063Z,81.11
2023-08-14T03:16:40.204Z,80.67
2023-08-14T03:19:07.018Z,80.32
2023-08-14T03:21:33.774Z,80.54
2023-08-14T03:24:00.555Z,79.80
2023-08-14T03:26:27.310Z,79.66
2023-08-14T03:28:54.062Z,80.04
2023-08-14T03:31:20.926Z,80.49
2023-08-14T03:33:47.967Z,81.34
2023-08-14T03:36:14.725Z,82.10
2023-08-14T03:38:41.465Z,82.74
2023-08-14T03:41:08.256Z,82.67
2023-08-14T03:43:35.028Z,82.08
2023-08-14T03:46:01.734Z,81.86
2023-08-14T03:48:28.451Z,80.31
2023-08-14T03:50:55.191Z,79.68
2023-08-14T03:53:21.920Z,79.60
2023-08-14T03:55:50.144Z,81.51
2023-08-14T03:58:17.840Z,81.55
2023-08-14T04:00:44.769Z,82.32
2023-08-14T04:03:11.562Z,82.93
2023-08-14T04:05:41.635Z,82.76
2023-08-14T04:08:09.547Z,82.73
2023-08-14T04:10:38.363Z,82.39
2023-08-14T04:13:05.106Z,81.83
2023-08-14T04:15:31.764Z,82.37
2023-08-14T04:17:58.407Z,82.24
2023-08-14T04:20:24.965Z,82.16
2023-08-14T04:22:51.644Z,82.43
2023-08-14T04:25:20.027Z,81.73
2023-08-14T04:27:47.228Z,82.14
2023-08-14T04:30:14.371Z,81.57
2023-08-14T04:32:42.389Z,81.25
2023-08-14T04:35:09.870Z,81.99
2023-08-14T04:37:36.635Z,82.50
2023-08-14T04:40:06.041Z,83.70
2023-08-14T04:42:34.229Z,85.01
2023-08-14T04:45:02.133Z,84.36
2023-08-14T04:47:29.065Z,84.50
2023-08-14T04:49:56.176Z,84.01
2023-08-14T04:52:23.615Z,83.99
2023-08-14T04:54:51.052Z,83.62
2023-08-14T04:57:18.054Z,83.63
2023-08-14T04:59:44.934Z,83.00
2023-08-14T05:02:11.789Z,82.81
2023-08-14T05:04:38.582Z,82.36
2023-08-14T05:07:05.430Z,79.38
2023-08-14T05:09:32.134Z,79.27
2023-08-14T05:12:02.006Z,78.29
2023-08-14T05:14:28.676Z,76.78
2023-08-14T05:16:55.513Z,75.34
2023-08-14T05:19:22.282Z,75.56
2023-08-14T05:21:49.161Z,74.82
2023-08-14T05:24:16.814Z,73.05
2023-08-14T05:26:43.594Z,72.07
2023-08-14T05:29:10.322Z,71.51
2023-08-14T05:31:37.138Z,70.85
2023-08-14T05:34:04.500Z,71.50
2023-08-14T05:36:31.270Z,72.38
2023-08-14T05:38:58.012Z,71.79
2023-08-14T05:41:24.737Z,68.09
2023-08-14T05:43:51.460Z,68.25
2023-08-14T05:46:20.257Z,67.66
2023-08-14T05:48:47.394Z,67.70
2023-08-14T05:51:14.304Z,67.28
2023-08-14T05:53:41.168Z,62.62
2023-08-14T05:56:07.925Z,60.20
2023-08-14T05:58:34.941Z,59.08
2023-08-14T06:01:01.758Z,57.82
2023-08-14T06:03:42.072Z,57.67
2023-08-14T06:06:11.527Z,58.16
2023-08-14T06:08:38.182Z,62.52
2023-08-14T06:11:04.931Z,56.52
2023-08-14T06:13:32.786Z,57.55
2023-08-14T06:15:59.574Z,54.78
2023-08-14T06:18:26.250Z,59.31
2023-08-14T06:20:52.948Z,56.80
2023-08-14T06:23:20.372Z,53.68
2023-08-14T06:25:47.295Z,52.97
2023-08-14T06:28:14.123Z,50.27
2023-08-14T06:30:41.257Z,51.25
2023-08-14T06:33:08.145Z,52.75
2023-08-14T06:35:34.817Z,47.81
2023-08-14T06:38:01.573Z,50.60
2023-08-14T06:40:28.229Z,52.06
2023-08-14T06:42:55.501Z,50.46
2023-08-14T06:45:23.341Z,53.17
2023-08-14T06:47:50.328Z,49.67
2023-08-14T06:50:17.211Z,52.85
2023-08-14T06:52:43.862Z,55.92
2023-08-14T06:55:10.613Z,58.90
2023-08-14T06:57:37.392Z,56.45
2023-08-14T07:00:07.945Z,59.92
2023-08-14T07:02:34.773Z,57.43
2023-08-14T07:05:01.567Z,54.28
2023-08-14T07:07:28.225Z,55.65
2023-08-14T07:09:55.052Z,57.49
2023-08-14T07:12:22.158Z,54.25
2023-08-14T07:14:50.039Z,56.36
2023-08-14T07:17:17.069Z,54.45
2023-08-14T07:19:43.769Z,55.62
2023-08-14T07:22:10.541Z,55.07
2023-08-14T07:24:37.286Z,56.83
2023-08-14T07:27:04.092Z,58.21
2023-08-14T07:29:30.839Z,53.47
2023-08-14T07:31:57.459Z,52.57
2023-08-14T07:34:24.099Z,52.14
2023-08-14T07:36:50.735Z,52.25
2023-08-14T07:39:20.572Z,53.58
2023-08-14T07:41:47.372Z,51.38
2023-08-14T07:44:14.112Z,51.36
2023-08-14T07:46:40.901Z,51.72
2023-08-14T07:49:07.482Z,52.65
2023-08-14T07:51:34.095Z,53.28
2023-08-14T07:54:00.748Z,51.66
2023-08-14T07:56:27.340Z,50.97
2023-08-14T07:58:54.087Z,48.71
2023-08-14T08:01:20.972Z,48.67
2023-08-14T08:03:47.824Z,48.93
2023-08-14T08:06:14.664Z,47.12
2023-08-14T08:08:43.602Z,48.61
2023-08-14T08:11:12.371Z,47.25
2023-08-14T08:13:39.253Z,46.68
2023-08-14T08:16:06.063Z,45.94
2023-08-14T08:18:32.776Z,45.50
2023-08-14T08:20:59.579Z,46.80
2023-08-14T08:23:26.221Z,46.52
2023-08-14T08:25:52.916Z,45.83
2023-08-14T08:28:19.551Z,46.88
2023-08-14T08:30:46.253Z,44.58
2023-08-14T08:33:13.041Z,44.04
2023-08-14T08:35:39.740Z,43.66
2023-08-14T08:38:06.588Z,45.35
2023-08-14T08:40:34.726Z,45.44
2023-08-14T08:43:03.553Z,45.84
2023-08-14T08:45:33.371Z,45.29
2023-08-14T08:48:07.152Z,46.91
2023-08-14T08:50:34.381Z,46.73
2023-08-14T08:53:01.754Z,46.08
2023-08-14T08:55:29.889Z,45.59
2023-08-14T08:57:59.315Z,44.34
2023-08-14T09:00:26.229Z,44.35
2023-08-14T09:02:53.332Z,45.15
2023-08-14T09:05:21.621Z,43.95
2023-08-14T09:07:49.423Z,44.93
2023-08-14T09:10:16.356Z,45.15
2023-08-14T09:12:43.153Z,45.76
2023-08-14T09:15:10.768Z,44.39
2023-08-14T09:17:37.705Z,42.07
2023-08-14T09:20:15.465Z,44.23
2023-08-14T09:22:46.926Z,41.93
2023-08-14T09:25:15.432Z,41.56
2023-08-14T09:27:45.401Z,40.90
2023-08-14T09:30:14.653Z,41.91
2023-08-14T09:32:41.402Z,42.92
2023-08-14T09:35:09.188Z,41.71
2023-08-14T09:37:36.496Z,40.61
2023-08-14T09:40:11.415Z,42.59
2023-08-14T09:42:38.716Z,42.34
2023-08-14T09:45:06.475Z,39.51
2023-08-14T09:47:33.640Z,41.33
2023-08-14T09:50:01.253Z,39.55
2023-08-14T09:52:28.111Z,40.20
2023-08-14T09:54:56.451Z,39.78
2023-08-14T09:57:28.815Z,39.42
2023-08-14T09:59:56.836Z,39.30
2023-08-14T10:02:25.205Z,39.02
2023-08-14T10:04:53.616Z,38.81
2023-08-14T10:07:23.165Z,38.86
2023-08-14T10:09:56.426Z,39.87
2023-08-14T10:12:29.153Z,38.25
2023-08-14T10:15:06.939Z,38.53
2023-08-14T10:17:42.888Z,38.91
2023-08-14T10:20:12.179Z,39.75
2023-08-14T10:22:41.172Z,39.13
2023-08-14T10:25:08.929Z,38.88
2023-08-14T10:27:35.931Z,38.80
2023-08-14T10:30:03.372Z,39.02
2023-08-14T10:32:32.589Z,38.31
2023-08-14T10:35:01.397Z,38.50
2023-08-14T10:37:29.615Z,37.93
2023-08-14T10:40:16.453Z,38.02
2023-08-14T10:42:51.649Z,35.89
2023-08-14T10:45:22.200Z,38.72
2023-08-14T10:47:49.205Z,37.70
2023-08-14T10:50:23.976Z,38.96
2023-08-14T10:52:54.875Z,36.41
2023-08-14T10:55:36.331Z,37.71
2023-08-14T10:58:37.944Z,38.84
2023-08-14T11:01:09.999Z,37.47
2023-08-14T11:03:57.064Z,36.55
2023-08-14T11:06:25.206Z,36.63
2023-08-14T11:08:59.873Z,37.74
2023-08-14T11:11:27.968Z,37.68
2023-08-14T11:13:54.930Z,37.06
2023-08-14T11:16:22.425Z,37.37
2023-08-14T11:18:49.210Z,36.43
2023-08-14T11:21:29.988Z,36.33
2023-08-14T11:23:58.482Z,36.21
2023-08-14T11:26:29.719Z,35.24
2023-08-14T11:28:56.617Z,32.75
2023-08-14T11:31:30.957Z,36.20
2023-08-14T11:34:02.004Z,35.74
2023-08-14T11:36:34.574Z,34.29
2023-08-14T11:39:01.786Z,33.61
2023-08-14T11:43:58.299Z,34.12
2023-08-14T11:46:25.443Z,33.90
2023-08-14T11:48:52.899Z,36.53
2023-08-14T11:51:20.202Z,35.86
2023-08-14T11:53:47.355Z,35.78
2023-08-14T11:56:14.901Z,33.77
2023-08-14T11:58:43.100Z,34.14
2023-08-14T12:01:11.100Z,33.56
2023-08-14T12:03:37.856Z,33.54
2023-08-14T12:06:05.490Z,33.94
2023-08-14T12:08:32.276Z,33.72
2023-08-14T12:10:59.376Z,34.00
2023-08-14T12:13:26.152Z,36.05
2023-08-14T12:15:53.312Z,35.26
2023-08-14T12:18:24.887Z,34.44
2023-08-14T12:20:54.559Z,36.25
2023-08-14T12:23:25.260Z,35.45
2023-08-14T12:25:52.768Z,35.79
2023-08-14T12:28:20.856Z,36.34
2023-08-14T12:30:49.561Z,33.86
2023-08-14T12:33:17.147Z,35.06
2023-08-14T12:35:43.853Z,33.68
2023-08-14T12:38:11.180Z,33.54
2023-08-14T12:40:38.056Z,33.97
2023-08-14T12:43:04.998Z,32.92
2023-08-14T12:45:31.763Z,33.59
2023-08-14T12:47:58.521Z,33.75
2023-08-14T12:50:25.293Z,34.34
2023-08-14T12:52:51.974Z,34.62
2023-08-14T12:55:19.217Z,33.78
2023-08-14T12:57:48.530Z,34.54
2023-08-14T13:00:16.343Z,34.70
2023-08-14T13:02:43.124Z,34.71
2023-08-14T13:05:09.953Z,33.43
2023-08-14T13:07:36.839Z,33.53
2023-08-14T13:10:04.516Z,33.63
2023-08-14T13:12:31.231Z,35.03
2023-08-14T13:14:57.927Z,34.09
2023-08-14T13:17:24.686Z,34.38
2023-08-14T13:19:53.354Z,34.39
2023-08-14T13:22:20.599Z,33.69
2023-08-14T13:24:47.283Z,34.13
2023-08-14T13:27:13.951Z,34.34
2023-08-14T13:29:40.546Z,34.45
2023-08-14T13:32:07.327Z,34.29
2023-08-14T13:34:34.498Z,33.14
2023-08-14T13:37:01.116Z,33.16
2023-08-14T13:39:27.907Z,34.29
2023-08-14T13:41:54.657Z,34.22
2023-08-14T13:44:21.461Z,32.97
2023-08-14T13:46:48.151Z,33.91
2023-08-14T13:49:14.820Z,33.79
2023-08-14T13:51:45.766Z,34.75
2023-08-14T13:54:12.676Z,32.87
2023-08-14T13:56:39.487Z,34.52
2023-08-14T13:59:06.237Z,34.46
2023-08-14T14:01:32.875Z,35.56
2023-08-14T14:03:59.544Z,33.70
2023-08-14T14:06:26.184Z,34.42
2023-08-14T14:08:52.821Z,34.99
2023-08-14T14:11:19.519Z,34.69
2023-08-14T14:13:46.244Z,34.22
2023-08-14T14:16:12.965Z,34.41
2023-08-14T14:18:39.713Z,34.07
2023-08-14T14:21:06.725Z,34.51
2023-08-14T14:23:33.411Z,33.72
2023-08-14T14:26:00.133Z,33.89
2023-08-14T14:28:29.751Z,33.98
2023-08-14T14:30:57.081Z,34.80
2023-08-14T14:33:23.741Z,34.00
2023-08-14T14:35:50.440Z,33.14
2023-08-14T14:38:17.190Z,33.73
2023-08-14T14:40:43.800Z,34.19
2023-08-14T14:43:11.498Z,34.36
2023-08-14T14:45:38.186Z,33.99
2023-08-14T14:48:05.302Z,33.24
2023-08-14T14:50:32.098Z,34.50
2023-08-14T14:52:59.581Z,34.11
2023-08-14T14:55:29.174Z,34.39
2023-08-14T14:57:55.995Z,33.28
2023-08-14T15:00:23.559Z,33.98
2023-08-14T15:02:51.583Z,34.76
2023-08-14T15:07:49.097Z,35.20
2023-08-14T15:10:15.909Z,34.94
2023-08-14T15:12:42.601Z,33.79
2023-08-14T15:15:09.586Z,34.16
2023-08-14T15:17:39.484Z,34.34
2023-08-14T15:20:11.374Z,33.62
2023-08-14T15:22:38.317Z,35.33
2023-08-14T15:25:05.765Z,33.77
2023-08-14T15:27:32.491Z,35.59
2023-08-14T15:29:59.226Z,34.22
2023-08-14T15:32:26.048Z,35.04
2023-08-14T15:34:52.784Z,33.77
2023-08-14T15:37:19.704Z,33.68
2023-08-14T15:39:46.608Z,34.37
2023-08-14T15:42:13.330Z,34.46
2023-08-14T15:44:40.029Z,34.30
2023-08-14T15:47:06.727Z,34.21
2023-08-14T15:49:33.329Z,34.44
2023-08-14T15:51:59.973Z,34.39
2023-08-14T15:54:27.181Z,35.03
2023-08-14T15:56:58.374Z,34.59
2023-08-14T15:59:28.274Z,35.54
2023-08-14T16:01:54.871Z,35.65
2023-08-14T16:04:21.555Z,35.04
2023-08-14T16:06:48.203Z,35.16
2023-08-14T16:09:14.821Z,35.33
2023-08-14T16:11:41.548Z,35.84
2023-08-14T16:14:08.367Z,35.12
2023-08-14T16:16:35.095Z,35.54
2023-08-14T16:19:01.824Z,35.56
2023-08-14T16:21:28.549Z,35.36
2023-08-14T16:23:55.196Z,35.69
2023-08-14T16:26:21.859Z,34.83
2023-08-14T16:28:48.579Z,35.14
2023-08-14T16:31:15.241Z,34.69
2023-08-14T16:33:42.093Z,35.06
2023-08-14T16:36:08.860Z,35.61
2023-08-14T16:38:35.487Z,35.68
2023-08-14T16:41:02.506Z,35.69
2023-08-14T16:43:29.139Z,36.04
2023-08-14T16:45:55.794Z,35.68
2023-08-14T16:48:22.390Z,35.96
2023-08-14T16:50:49.997Z,36.04
2023-08-14T16:53:16.573Z,36.46
2023-08-14T16:55:43.702Z,36.53
2023-08-14T16:58:10.379Z,36.13
2023-08-14T17:00:37.045Z,36.36
2023-08-14T17:03:05.966Z,37.21
2023-08-14T17:05:33.063Z,37.17
2023-08-14T17:07:59.911Z,37.65
2023-08-14T17:10:26.799Z,37.41
2023-08-14T17:12:53.482Z,37.48
2023-08-14T17:15:20.324Z,38.07
2023-08-14T17:17:47.155Z,39.01
2023-08-14T17:20:13.840Z,39.94
2023-08-14T17:22:40.548Z,40.57
2023-08-14T17:25:07.708Z,41.13
2023-08-14T17:27:34.618Z,41.69
2023-08-14T17:30:01.626Z,42.84
2023-08-14T17:32:28.322Z,43.04
2023-08-14T17:34:55.020Z,44.04
2023-08-14T17:37:21.878Z,46.01
2023-08-14T17:39:48.915Z,46.30
2023-08-14T17:42:15.646Z,48.03
2023-08-14T17:44:42.354Z,49.15
2023-08-14T17:47:09.114Z,48.75
2023-08-14T17:49:35.945Z,48.87
2023-08-14T17:52:02.723Z,50.14
2023-08-14T17:54:29.673Z,51.36
2023-08-14T17:56:56.440Z,50.26
2023-08-14T17:59:23.350Z,50.95
2023-08-14T18:01:50.064Z,51.88
2023-08-14T18:04:16.806Z,53.09
2023-08-14T18:06:43.621Z,54.03
2023-08-14T18:09:10.461Z,53.04
2023-08-14T18:11:37.273Z,52.27
2023-08-14T18:14:04.062Z,52.03
2023-08-14T18:16:30.790Z,50.97
2023-08-14T18:19:12.708Z,50.99
2023-08-14T18:21:44.215Z,51.03
2023-08-14T18:24:10.836Z,52.11
2023-08-14T18:26:37.565Z,52.21
2023-08-14T18:29:05.190Z,53.14
2023-08-14T18:31:31.885Z,54.32
2023-08-14T18:33:58.631Z,55.41
2023-08-14T18:36:25.409Z,55.52
2023-08-14T18:38:52.095Z,56.92
2023-08-14T18:41:18.755Z,57.02
2023-08-14T18:43:45.481Z,56.39
2023-08-14T18:46:12.216Z,57.06
2023-08-14T18:48:38.986Z,57.26
2023-08-14T18:51:05.755Z,57.48
2023-08-14T18:53:32.580Z,56.53
2023-08-14T18:55:59.343Z,57.02
2023-08-14T18:58:26.308Z,57.63
2023-08-14T19:00:53.147Z,58.70
2023-08-14T19:03:19.952Z,58.07
2023-08-14T19:05:48.006Z,60.30
2023-08-14T19:08:14.732Z,58.42
2023-08-14T19:10:41.495Z,60.66
2023-08-14T19:13:08.236Z,60.74
2023-08-14T19:15:35.118Z,58.93
2023-08-14T19:18:02.771Z,59.75
2023-08-14T19:20:29.639Z,60.65
2023-08-14T19:22:58.728Z,61.88
2023-08-14T19:25:27.918Z,61.38
2023-08-14T19:28:15.647Z,61.53
2023-08-14T19:30:48.256Z,60.92
2023-08-14T19:33:15.361Z,60.78
2023-08-14T19:35:42.144Z,62.85
2023-08-14T19:38:08.922Z,63.75
2023-08-14T19:40:39.099Z,62.75
2023-08-14T19:43:06.012Z,62.47
2023-08-14T19:45:34.711Z,62.12
2023-08-14T19:48:06.143Z,62.62
2023-08-14T19:50:33.896Z,62.87
2023-08-14T19:53:00.694Z,62.36
2023-08-14T19:55:27.915Z,63.27
2023-08-14T19:57:54.827Z,63.58
2023-08-14T20:00:21.755Z,63.39
2023-08-14T20:02:51.135Z,64.33
2023-08-14T20:05:29.474Z,64.62
2023-08-14T20:08:02.085Z,65.46
2023-08-14T20:10:38.966Z,66.40
2023-08-14T20:13:09.885Z,65.51
2023-08-14T20:15:53.708Z,65.71
2023-08-14T20:18:29.655Z,65.28
2023-08-14T20:21:04.908Z,66.43
2023-08-14T20:23:35.788Z,67.36
2023-08-14T20:26:02.611Z,68.93
2023-08-14T20:28:29.272Z,70.83
2023-08-14T20:30:55.995Z,70.03
2023-08-14T20:33:24.308Z,69.39
2023-08-14T20:35:51.711Z,68.87
2023-08-14T20:38:18.582Z,68.34
2023-08-14T20:40:45.423Z,67.49
2023-08-14T20:43:14.312Z,67.15
2023-08-14T20:45:43.252Z,68.59
2023-08-14T20:48:10.396Z,69.99
2023-08-14T20:50:37.462Z,71.02
2023-08-14T20:53:04.888Z,71.57
2023-08-14T20:55:32.948Z,70.54
2023-08-14T20:57:59.735Z,70.12
2023-08-14T21:00:26.680Z,70.71
2023-08-14T21:02:55.840Z,70.10
2023-08-14T21:05:24.907Z,68.66
2023-08-14T21:07:53.207Z,70.63
2023-08-14T21:10:20.148Z,70.18
2023-08-14T21:12:46.940Z,70.06
2023-08-14T21:15:13.708Z,70.18
2023-08-14T21:17:40.480Z,70.01
2023-08-14T21:20:10.966Z,70.17
2023-08-14T21:22:37.968Z,69.89
2023-08-14T21:25:05.254Z,69.68
2023-08-14T21:27:32.267Z,69.53
2023-08-14T21:30:01.318Z,69.58
2023-08-14T21:32:28.341Z,70.51
2023-08-14T21:34:55.225Z,70.75
2023-08-14T21:37:22.310Z,71.50
2023-08-14T21:39:51.223Z,72.41
2023-08-14T21:42:17.951Z,73.00
2023-08-14T21:44:45.092Z,73.05
2023-08-14T21:47:12.158Z,72.39
2023-08-14T21:49:39.109Z,71.97
2023-08-14T21:52:06.477Z,72.33
2023-08-14T21:54:33.587Z,74.41
2023-08-14T21:57:01.034Z,73.27
2023-08-14T21:59:30.497Z,71.76
2023-08-14T22:01:59.283Z,74.07
2023-08-14T22:04:33.313Z,75.55
2023-08-14T22:07:00.175Z,75.68
2023-08-14T22:09:33.884Z,76.81
2023-08-14T22:12:03.080Z,75.69
2023-08-14T22:14:31.738Z,75.34
2023-08-14T22:17:00.966Z,74.62
2023-08-14T22:19:30.351Z,74.08
2023-08-14T22:22:00.345Z,73.51
2023-08-14T22:24:39.781Z,76.62
2023-08-14T22:27:08.493Z,78.06
2023-08-14T22:29:35.292Z,79.21
2023-08-14T22:32:02.093Z,79.87
2023-08-14T22:34:33.119Z,78.89
2023-08-14T22:37:00.007Z,79.62
2023-08-14T22:39:26.971Z,79.46
2023-08-14T22:41:53.817Z,80.07
2023-08-14T22:44:21.882Z,80.56
2023-08-14T22:46:50.925Z,79.85
2023-08-14T22:49:17.825Z,79.37
2023-08-14T22:51:44.702Z,77.83
2023-08-14T22:54:11.806Z,78.82
2023-08-14T22:56:38.677Z,77.95
2023-08-14T22:59:07.500Z,78.29
2023-08-14T23:01:34.331Z,78.82
2023-08-14T23:04:01.150Z,80.39
2023-08-14T23:06:33.510Z,81.37
2023-08-14T23:09:02.486Z,82.26
2023-08-14T23:11:31.641Z,82.26
2023-08-14T23:13:58.652Z,82.23
2023-08-14T23:16:25.618Z,81.13
2023-08-14T23:18:55.237Z,80.39
2023-08-14T23:21:25.113Z,80.56
2023-08-14T23:23:56.797Z,79.37
2023-08-14T23:26:29.336Z,79.39
2023-08-14T23:28:56.145Z,78.79
2023-08-14T23:31:35.688Z,77.95
2023-08-14T23:34:02.768Z,80.41
2023-08-14T23:36:31.837Z,81.73
2023-08-14T23:38:58.810Z,82.13
2023-08-14T23:41:27.997Z,83.26
2023-08-14T23:43:54.831Z,83.20
2023-08-14T23:46:24.619Z,82.78
2023-08-14T23:48:54.834Z,81.93
2023-08-14T23:51:23.993Z,81.07
2023-08-14T23:53:50.997Z,79.98
2023-08-14T23:56:20.145Z,79.73
2023-08-14T23:58:50.430Z,81.44
